Fort Simpson, Northwest Territories

3:44 AM MDT on July 27, 2016 (GMT -0600)
Fort Simpson | | Change Station

Elev 554 ft 61.76 °N, 121.24 °W | Updated 44 minutes ago

Mostly Cloudy
Mostly Cloudy
55 °F
Feels Like 55 °F
N
5
Wind Variable Wind from North

Today
High -- | Low -- °F
--% Chance of Precip.
Yesterday
High -- | Low -- °F
Precip. -- in
Pressure 30.10 in
Visibility 15.0 miles
Clouds Mostly Cloudy 3000 ft
Dew Point 50 °F
Humidity 82%
Rainfall 0.00 in
Snow Depth Not available.
5:21 AM 10:59 PM
Last Quarter, 45% visible
METAR CYFS 270900Z 35004KT 330V030 15SM BKN030 13/10 A3008 RMK SC7 SLP193
Pressure 30.10 in
Visibility 15.0 miles
Clouds Mostly Cloudy 3000 ft
Dew Point 50 °F
Humidity 82%
Rainfall 0.00 in
Snow Depth Not available.
5:21 AM 10:59 PM
Last Quarter, 45% visible
METAR CYFS 270900Z 35004KT 330V030 15SM BKN030 13/10 A3008 RMK SC7 SLP193

10-Day Weather Forecast

No radar image for this location.
×

Almanac

Astronomy

Jul. 27, 2016 Rise Set
Actual Time
Civil Twilight
Nautical Twilight
Astronomical Twilight
Moon
Length of Visible Light
Length of Day
Tomorrow will be .
, % of the Moon is Illuminated

Today's Extremes

Country Highs Country Lows

Community

WunderPhotos

Upload Photos

1,927,818 photos uploaded!

WunderBlog® & News

Nearby

Air Quality

  Air Quality AQ Index Pollutant
Not available.

Snow Depth

Station Depth Elevation

Earthquake Activity

City Distance Mag. Time & Date
Minimum magnitude displayed is 2.5.

Coastal Water Temperatures

Place Temperature

Stations

Nearby Weather Stations

Station Location Temp. Windchill Dew Point Humidity Wind Precip. Elev Updated Type
                   

Watches & Warnings

There are currently no watches in effect.